sensor_id;sensor_type;location;lat;lon;timestamp;temperature;humidity
56538;DHT22;42435;53.292;6.000;2023-12-07T00:01:35;4.60;80.50
56538;DHT22;42435;53.292;6.000;2023-12-07T00:04:01;4.60;80.50
56538;DHT22;42435;53.292;6.000;2023-12-07T00:06:27;4.60;80.50
56538;DHT22;42435;53.292;6.000;2023-12-07T00:08:52;4.50;80.40
56538;DHT22;42435;53.292;6.000;2023-12-07T00:11:18;4.50;80.40
56538;DHT22;42435;53.292;6.000;2023-12-07T00:13:43;4.50;80.50
56538;DHT22;42435;53.292;6.000;2023-12-07T00:16:09;4.50;80.50
56538;DHT22;42435;53.292;6.000;2023-12-07T00:18:35;4.50;80.50
56538;DHT22;42435;53.292;6.000;2023-12-07T00:21:01;4.50;80.50
56538;DHT22;42435;53.292;6.000;2023-12-07T00:23:27;4.40;80.50
56538;DHT22;42435;53.292;6.000;2023-12-07T00:25:52;4.50;80.50
56538;DHT22;42435;53.292;6.000;2023-12-07T00:28:18;4.40;80.50
56538;DHT22;42435;53.292;6.000;2023-12-07T00:30:43;4.40;80.50
56538;DHT22;42435;53.292;6.000;2023-12-07T00:33:09;4.40;80.50
56538;DHT22;42435;53.292;6.000;2023-12-07T00:35:35;4.40;80.50
56538;DHT22;42435;53.292;6.000;2023-12-07T00:38:01;4.40;80.60
56538;DHT22;42435;53.292;6.000;2023-12-07T00:40:27;4.40;80.70
56538;DHT22;42435;53.292;6.000;2023-12-07T00:42:53;4.30;80.70
56538;DHT22;42435;53.292;6.000;2023-12-07T00:45:18;4.30;80.70
56538;DHT22;42435;53.292;6.000;2023-12-07T00:47:45;4.30;80.80
56538;DHT22;42435;53.292;6.000;2023-12-07T00:50:14;4.30;80.80
56538;DHT22;42435;53.292;6.000;2023-12-07T00:52:40;4.30;80.80
56538;DHT22;42435;53.292;6.000;2023-12-07T00:55:05;4.30;80.80
56538;DHT22;42435;53.292;6.000;2023-12-07T00:57:31;4.30;80.80
56538;DHT22;42435;53.292;6.000;2023-12-07T01:00:00;4.30;80.80
56538;DHT22;42435;53.292;6.000;2023-12-07T01:02:25;4.30;80.80
56538;DHT22;42435;53.292;6.000;2023-12-07T01:04:51;4.30;80.80
56538;DHT22;42435;53.292;6.000;2023-12-07T01:07:16;4.30;80.90
56538;DHT22;42435;53.292;6.000;2023-12-07T01:09:42;4.30;80.90
56538;DHT22;42435;53.292;6.000;2023-12-07T01:12:08;4.30;81.00
56538;DHT22;42435;53.292;6.000;2023-12-07T01:14:33;4.30;81.00
56538;DHT22;42435;53.292;6.000;2023-12-07T01:16:59;4.30;81.00
56538;DHT22;42435;53.292;6.000;2023-12-07T01:19:24;4.30;81.00
56538;DHT22;42435;53.292;6.000;2023-12-07T01:21:50;4.30;81.00
56538;DHT22;42435;53.292;6.000;2023-12-07T01:24:16;4.30;81.10
56538;DHT22;42435;53.292;6.000;2023-12-07T01:26:42;4.30;81.10
56538;DHT22;42435;53.292;6.000;2023-12-07T01:29:07;4.30;81.10
56538;DHT22;42435;53.292;6.000;2023-12-07T01:31:33;4.30;81.20
56538;DHT22;42435;53.292;6.000;2023-12-07T01:33:59;4.30;81.20
56538;DHT22;42435;53.292;6.000;2023-12-07T01:36:24;4.30;81.20
56538;DHT22;42435;53.292;6.000;2023-12-07T01:38:50;4.30;81.20
56538;DHT22;42435;53.292;6.000;2023-12-07T01:41:16;4.30;81.20
56538;DHT22;42435;53.292;6.000;2023-12-07T01:43:45;4.30;81.20
56538;DHT22;42435;53.292;6.000;2023-12-07T01:46:13;4.30;81.20
56538;DHT22;42435;53.292;6.000;2023-12-07T01:48:40;4.30;81.20
56538;DHT22;42435;53.292;6.000;2023-12-07T01:51:07;4.30;81.10
56538;DHT22;42435;53.292;6.000;2023-12-07T01:53:33;4.30;81.10
56538;DHT22;42435;53.292;6.000;2023-12-07T01:55:59;4.40;81.00
56538;DHT22;42435;53.292;6.000;2023-12-07T01:58:25;4.40;81.00
56538;DHT22;42435;53.292;6.000;2023-12-07T02:00:51;4.30;81.00
56538;DHT22;42435;53.292;6.000;2023-12-07T02:03:17;4.40;81.00
56538;DHT22;42435;53.292;6.000;2023-12-07T02:05:48;4.40;80.90
56538;DHT22;42435;53.292;6.000;2023-12-07T02:08:14;4.30;80.90
56538;DHT22;42435;53.292;6.000;2023-12-07T02:10:40;4.30;80.90
56538;DHT22;42435;53.292;6.000;2023-12-07T02:13:06;4.30;80.90
56538;DHT22;42435;53.292;6.000;2023-12-07T02:15:32;4.40;81.00
56538;DHT22;42435;53.292;6.000;2023-12-07T02:18:19;4.40;81.10
56538;DHT22;42435;53.292;6.000;2023-12-07T02:21:04;4.40;81.10
56538;DHT22;42435;53.292;6.000;2023-12-07T02:23:32;4.40;81.00
56538;DHT22;42435;53.292;6.000;2023-12-07T02:26:03;4.30;80.90
56538;DHT22;42435;53.292;6.000;2023-12-07T02:28:28;4.30;80.80
56538;DHT22;42435;53.292;6.000;2023-12-07T02:30:54;4.30;80.70
56538;DHT22;42435;53.292;6.000;2023-12-07T02:33:20;4.20;80.70
56538;DHT22;42435;53.292;6.000;2023-12-07T02:35:47;4.20;80.60
56538;DHT22;42435;53.292;6.000;2023-12-07T02:38:13;4.10;80.60
56538;DHT22;42435;53.292;6.000;2023-12-07T02:40:40;4.10;80.60
56538;DHT22;42435;53.292;6.000;2023-12-07T02:43:06;4.00;80.60
56538;DHT22;42435;53.292;6.000;2023-12-07T02:45:33;4.00;80.60
56538;DHT22;42435;53.292;6.000;2023-12-07T02:47:59;3.90;80.60
56538;DHT22;42435;53.292;6.000;2023-12-07T02:50:25;3.90;80.70
56538;DHT22;42435;53.292;6.000;2023-12-07T02:52:52;3.80;80.70
56538;DHT22;42435;53.292;6.000;2023-12-07T02:55:17;3.80;80.80
56538;DHT22;42435;53.292;6.000;2023-12-07T02:57:43;3.70;80.90
56538;DHT22;42435;53.292;6.000;2023-12-07T03:00:09;3.60;81.00
56538;DHT22;42435;53.292;6.000;2023-12-07T03:02:38;3.60;81.10
56538;DHT22;42435;53.292;6.000;2023-12-07T03:05:05;3.60;81.20
56538;DHT22;42435;53.292;6.000;2023-12-07T03:07:31;3.50;81.30
56538;DHT22;42435;53.292;6.000;2023-12-07T03:09:56;3.50;81.40
56538;DHT22;42435;53.292;6.000;2023-12-07T03:12:23;3.50;81.50
56538;DHT22;42435;53.292;6.000;2023-12-07T03:14:49;3.40;81.60
56538;DHT22;42435;53.292;6.000;2023-12-07T03:17:15;3.40;81.60
56538;DHT22;42435;53.292;6.000;2023-12-07T03:19:41;3.40;81.70
56538;DHT22;42435;53.292;6.000;2023-12-07T03:22:07;3.40;81.70
56538;DHT22;42435;53.292;6.000;2023-12-07T03:24:36;3.40;81.80
56538;DHT22;42435;53.292;6.000;2023-12-07T03:27:03;3.40;81.80
56538;DHT22;42435;53.292;6.000;2023-12-07T03:29:28;3.40;81.80
56538;DHT22;42435;53.292;6.000;2023-12-07T03:31:54;3.30;81.90
56538;DHT22;42435;53.292;6.000;2023-12-07T03:34:20;3.30;81.90
56538;DHT22;42435;53.292;6.000;2023-12-07T03:36:46;3.30;81.90
56538;DHT22;42435;53.292;6.000;2023-12-07T03:39:14;3.30;82.00
56538;DHT22;42435;53.292;6.000;2023-12-07T03:41:39;3.30;82.00
56538;DHT22;42435;53.292;6.000;2023-12-07T03:44:05;3.30;82.10
56538;DHT22;42435;53.292;6.000;2023-12-07T03:46:31;3.30;82.10
56538;DHT22;42435;53.292;6.000;2023-12-07T03:48:56;3.30;82.20
56538;DHT22;42435;53.292;6.000;2023-12-07T03:51:22;3.30;82.20
56538;DHT22;42435;53.292;6.000;2023-12-07T03:53:47;3.30;82.20
56538;DHT22;42435;53.292;6.000;2023-12-07T03:56:26;3.30;82.30
56538;DHT22;42435;53.292;6.000;2023-12-07T03:58:52;3.30;82.30
56538;DHT22;42435;53.292;6.000;2023-12-07T04:01:21;3.30;82.30
56538;DHT22;42435;53.292;6.000;2023-12-07T04:03:47;3.30;82.40
56538;DHT22;42435;53.292;6.000;2023-12-07T04:06:13;3.30;82.40
56538;DHT22;42435;53.292;6.000;2023-12-07T04:08:38;3.40;82.40
56538;DHT22;42435;53.292;6.000;2023-12-07T04:11:04;3.40;82.40
56538;DHT22;42435;53.292;6.000;2023-12-07T04:13:31;3.40;82.40
56538;DHT22;42435;53.292;6.000;2023-12-07T04:16:00;3.40;82.50
56538;DHT22;42435;53.292;6.000;2023-12-07T04:18:25;3.40;82.40
56538;DHT22;42435;53.292;6.000;2023-12-07T04:20:51;3.40;82.40
56538;DHT22;42435;53.292;6.000;2023-12-07T04:23:16;3.50;82.40
56538;DHT22;42435;53.292;6.000;2023-12-07T04:25:42;3.50;82.40
56538;DHT22;42435;53.292;6.000;2023-12-07T04:28:08;3.50;82.40
56538;DHT22;42435;53.292;6.000;2023-12-07T04:30:33;3.50;82.50
56538;DHT22;42435;53.292;6.000;2023-12-07T04:32:59;3.50;82.40
56538;DHT22;42435;53.292;6.000;2023-12-07T04:35:24;3.60;82.40
56538;DHT22;42435;53.292;6.000;2023-12-07T04:37:50;3.60;82.50
56538;DHT22;42435;53.292;6.000;2023-12-07T04:40:16;3.60;82.50
56538;DHT22;42435;53.292;6.000;2023-12-07T04:42:41;3.70;82.50
56538;DHT22;42435;53.292;6.000;2023-12-07T04:45:07;3.70;82.50
56538;DHT22;42435;53.292;6.000;2023-12-07T04:47:33;3.70;82.50
56538;DHT22;42435;53.292;6.000;2023-12-07T04:49:59;3.70;82.50
56538;DHT22;42435;53.292;6.000;2023-12-07T04:52:25;3.80;82.50
56538;DHT22;42435;53.292;6.000;2023-12-07T04:54:50;3.80;82.50
56538;DHT22;42435;53.292;6.000;2023-12-07T04:57:17;3.80;82.60
56538;DHT22;42435;53.292;6.000;2023-12-07T04:59:43;3.80;82.60
56538;DHT22;42435;53.292;6.000;2023-12-07T05:02:16;3.80;82.60
56538;DHT22;42435;53.292;6.000;2023-12-07T05:04:42;3.90;82.60
56538;DHT22;42435;53.292;6.000;2023-12-07T05:07:08;3.90;82.50
56538;DHT22;42435;53.292;6.000;2023-12-07T05:09:34;3.90;82.30
56538;DHT22;42435;53.292;6.000;2023-12-07T05:11:59;3.90;82.20
56538;DHT22;42435;53.292;6.000;2023-12-07T05:14:25;3.90;82.10
56538;DHT22;42435;53.292;6.000;2023-12-07T05:16:51;3.90;82.00
56538;DHT22;42435;53.292;6.000;2023-12-07T05:19:25;3.90;81.90
56538;DHT22;42435;53.292;6.000;2023-12-07T05:21:51;3.90;81.80
56538;DHT22;42435;53.292;6.000;2023-12-07T05:24:18;3.90;81.80
56538;DHT22;42435;53.292;6.000;2023-12-07T05:26:44;3.80;81.70
56538;DHT22;42435;53.292;6.000;2023-12-07T05:29:15;3.80;81.70
56538;DHT22;42435;53.292;6.000;2023-12-07T05:31:41;3.80;81.70
56538;DHT22;42435;53.292;6.000;2023-12-07T05:34:07;3.80;81.70
56538;DHT22;42435;53.292;6.000;2023-12-07T05:36:33;3.70;81.70
56538;DHT22;42435;53.292;6.000;2023-12-07T05:38:59;3.70;81.70
56538;DHT22;42435;53.292;6.000;2023-12-07T05:41:24;3.80;81.70
56538;DHT22;42435;53.292;6.000;2023-12-07T05:43:53;3.80;81.70
56538;DHT22;42435;53.292;6.000;2023-12-07T05:46:19;3.70;81.60
56538;DHT22;42435;53.292;6.000;2023-12-07T05:48:45;3.70;81.60
56538;DHT22;42435;53.292;6.000;2023-12-07T05:51:15;3.70;81.60
56538;DHT22;42435;53.292;6.000;2023-12-07T05:53:41;3.70;81.60
56538;DHT22;42435;53.292;6.000;2023-12-07T05:56:07;3.60;81.60
56538;DHT22;42435;53.292;6.000;2023-12-07T05:58:33;3.60;81.60
56538;DHT22;42435;53.292;6.000;2023-12-07T06:01:00;3.50;81.60
56538;DHT22;42435;53.292;6.000;2023-12-07T06:03:26;3.50;81.70
56538;DHT22;42435;53.292;6.000;2023-12-07T06:05:52;3.50;81.70
56538;DHT22;42435;53.292;6.000;2023-12-07T06:08:18;3.50;81.80
56538;DHT22;42435;53.292;6.000;2023-12-07T06:10:43;3.50;81.80
56538;DHT22;42435;53.292;6.000;2023-12-07T06:13:09;3.50;81.80
56538;DHT22;42435;53.292;6.000;2023-12-07T06:15:36;3.50;81.80
56538;DHT22;42435;53.292;6.000;2023-12-07T06:18:01;3.50;81.90
56538;DHT22;42435;53.292;6.000;2023-12-07T06:20:27;3.50;81.90
56538;DHT22;42435;53.292;6.000;2023-12-07T06:22:53;3.50;81.90
56538;DHT22;42435;53.292;6.000;2023-12-07T06:25:18;3.50;81.90
56538;DHT22;42435;53.292;6.000;2023-12-07T06:27:44;3.50;81.90
56538;DHT22;42435;53.292;6.000;2023-12-07T06:30:10;3.50;81.90
56538;DHT22;42435;53.292;6.000;2023-12-07T06:32:36;3.40;81.90
56538;DHT22;42435;53.292;6.000;2023-12-07T06:35:02;3.40;81.90
56538;DHT22;42435;53.292;6.000;2023-12-07T06:37:30;3.40;82.00
56538;DHT22;42435;53.292;6.000;2023-12-07T06:39:55;3.40;82.00
56538;DHT22;42435;53.292;6.000;2023-12-07T06:42:21;3.30;82.00
56538;DHT22;42435;53.292;6.000;2023-12-07T06:44:47;3.30;82.00
56538;DHT22;42435;53.292;6.000;2023-12-07T06:47:16;3.30;82.10
56538;DHT22;42435;53.292;6.000;2023-12-07T06:49:42;3.20;82.10
56538;DHT22;42435;53.292;6.000;2023-12-07T06:52:07;3.20;82.20
56538;DHT22;42435;53.292;6.000;2023-12-07T06:54:34;3.20;82.30
56538;DHT22;42435;53.292;6.000;2023-12-07T06:57:01;3.10;82.40
56538;DHT22;42435;53.292;6.000;2023-12-07T06:59:26;3.20;82.50
56538;DHT22;42435;53.292;6.000;2023-12-07T07:01:52;3.10;82.50
56538;DHT22;42435;53.292;6.000;2023-12-07T07:04:18;3.10;82.60
56538;DHT22;42435;53.292;6.000;2023-12-07T07:06:44;3.10;82.70
56538;DHT22;42435;53.292;6.000;2023-12-07T07:09:09;3.10;82.70
56538;DHT22;42435;53.292;6.000;2023-12-07T07:11:35;3.00;82.80
56538;DHT22;42435;53.292;6.000;2023-12-07T07:14:02;3.00;82.80
56538;DHT22;42435;53.292;6.000;2023-12-07T07:16:28;3.00;82.90
56538;DHT22;42435;53.292;6.000;2023-12-07T07:18:53;3.00;82.90
56538;DHT22;42435;53.292;6.000;2023-12-07T07:21:19;3.00;83.00
56538;DHT22;42435;53.292;6.000;2023-12-07T07:23:47;3.00;83.10
56538;DHT22;42435;53.292;6.000;2023-12-07T07:26:12;3.00;83.10
56538;DHT22;42435;53.292;6.000;2023-12-07T07:29:00;3.00;83.20
56538;DHT22;42435;53.292;6.000;2023-12-07T07:31:29;3.00;83.30
56538;DHT22;42435;53.292;6.000;2023-12-07T07:33:55;3.10;83.30
56538;DHT22;42435;53.292;6.000;2023-12-07T07:36:21;3.10;83.30
56538;DHT22;42435;53.292;6.000;2023-12-07T07:38:46;3.10;83.40
56538;DHT22;42435;53.292;6.000;2023-12-07T07:41:13;3.10;83.40
56538;DHT22;42435;53.292;6.000;2023-12-07T07:43:39;3.10;83.30
56538;DHT22;42435;53.292;6.000;2023-12-07T07:46:05;3.10;83.30
56538;DHT22;42435;53.292;6.000;2023-12-07T07:48:31;3.10;83.20
56538;DHT22;42435;53.292;6.000;2023-12-07T07:50:57;3.10;83.20
56538;DHT22;42435;53.292;6.000;2023-12-07T07:53:24;3.00;83.10
56538;DHT22;42435;53.292;6.000;2023-12-07T07:55:50;3.00;83.20
56538;DHT22;42435;53.292;6.000;2023-12-07T07:58:15;3.00;83.20
56538;DHT22;42435;53.292;6.000;2023-12-07T08:00:41;3.00;83.20
56538;DHT22;42435;53.292;6.000;2023-12-07T08:03:06;3.00;83.20
56538;DHT22;42435;53.292;6.000;2023-12-07T08:05:32;3.00;83.20
56538;DHT22;42435;53.292;6.000;2023-12-07T08:07:58;3.00;83.20
56538;DHT22;42435;53.292;6.000;2023-12-07T08:10:24;2.90;83.20
56538;DHT22;42435;53.292;6.000;2023-12-07T08:12:49;2.90;83.20
56538;DHT22;42435;53.292;6.000;2023-12-07T08:15:15;3.00;83.20
56538;DHT22;42435;53.292;6.000;2023-12-07T08:17:41;2.90;83.20
56538;DHT22;42435;53.292;6.000;2023-12-07T08:20:08;2.90;83.20
56538;DHT22;42435;53.292;6.000;2023-12-07T08:22:38;3.00;83.30
56538;DHT22;42435;53.292;6.000;2023-12-07T08:25:04;2.90;83.30
56538;DHT22;42435;53.292;6.000;2023-12-07T08:27:34;2.90;83.40
56538;DHT22;42435;53.292;6.000;2023-12-07T08:30:00;2.90;83.40
56538;DHT22;42435;53.292;6.000;2023-12-07T08:32:26;3.00;83.50
56538;DHT22;42435;53.292;6.000;2023-12-07T08:34:52;3.00;83.60
56538;DHT22;42435;53.292;6.000;2023-12-07T08:37:18;3.00;83.70
56538;DHT22;42435;53.292;6.000;2023-12-07T08:39:43;3.10;83.70
56538;DHT22;42435;53.292;6.000;2023-12-07T08:42:09;3.10;83.70
56538;DHT22;42435;53.292;6.000;2023-12-07T08:44:35;3.20;83.80
56538;DHT22;42435;53.292;6.000;2023-12-07T08:47:00;3.20;83.80
56538;DHT22;42435;53.292;6.000;2023-12-07T08:49:26;3.40;83.80
56538;DHT22;42435;53.292;6.000;2023-12-07T08:51:52;3.50;83.70
56538;DHT22;42435;53.292;6.000;2023-12-07T08:54:18;3.60;83.60
56538;DHT22;42435;53.292;6.000;2023-12-07T08:56:45;3.70;83.40
56538;DHT22;42435;53.292;6.000;2023-12-07T08:59:11;3.80;83.30
56538;DHT22;42435;53.292;6.000;2023-12-07T09:01:36;3.90;83.10
56538;DHT22;42435;53.292;6.000;2023-12-07T09:04:02;4.00;82.90
56538;DHT22;42435;53.292;6.000;2023-12-07T09:06:28;4.10;82.70
56538;DHT22;42435;53.292;6.000;2023-12-07T09:08:54;4.20;82.60
56538;DHT22;42435;53.292;6.000;2023-12-07T09:11:20;4.40;82.50
56538;DHT22;42435;53.292;6.000;2023-12-07T09:13:46;4.50;82.20
56538;DHT22;42435;53.292;6.000;2023-12-07T09:16:12;4.60;82.00
56538;DHT22;42435;53.292;6.000;2023-12-07T09:18:42;4.70;81.90
56538;DHT22;42435;53.292;6.000;2023-12-07T09:21:08;4.80;81.60
56538;DHT22;42435;53.292;6.000;2023-12-07T09:23:34;5.00;81.30
56538;DHT22;42435;53.292;6.000;2023-12-07T09:26:00;5.10;81.10
56538;DHT22;42435;53.292;6.000;2023-12-07T09:28:26;5.20;81.00
56538;DHT22;42435;53.292;6.000;2023-12-07T09:30:51;5.40;80.90
56538;DHT22;42435;53.292;6.000;2023-12-07T09:33:17;5.50;80.70
56538;DHT22;42435;53.292;6.000;2023-12-07T09:35:43;5.70;80.40
56538;DHT22;42435;53.292;6.000;2023-12-07T09:38:08;5.80;80.10
56538;DHT22;42435;53.292;6.000;2023-12-07T09:40:35;6.00;79.90
56538;DHT22;42435;53.292;6.000;2023-12-07T09:43:01;6.10;79.60
56538;DHT22;42435;53.292;6.000;2023-12-07T09:45:27;6.30;79.30
56538;DHT22;42435;53.292;6.000;2023-12-07T09:47:53;6.40;78.90
56538;DHT22;42435;53.292;6.000;2023-12-07T09:50:21;6.50;78.60
56538;DHT22;42435;53.292;6.000;2023-12-07T09:52:51;6.70;78.30
56538;DHT22;42435;53.292;6.000;2023-12-07T09:55:19;6.90;77.90
56538;DHT22;42435;53.292;6.000;2023-12-07T09:57:46;7.00;77.60
56538;DHT22;42435;53.292;6.000;2023-12-07T10:00:12;7.20;77.20
56538;DHT22;42435;53.292;6.000;2023-12-07T10:02:41;7.30;76.80
56538;DHT22;42435;53.292;6.000;2023-12-07T10:05:13;7.40;76.40
56538;DHT22;42435;53.292;6.000;2023-12-07T10:07:44;7.50;75.80
56538;DHT22;42435;53.292;6.000;2023-12-07T10:10:12;7.60;75.60
56538;DHT22;42435;53.292;6.000;2023-12-07T10:15:14;7.90;74.50
56538;DHT22;42435;53.292;6.000;2023-12-07T10:17:50;8.00;74.40
56538;DHT22;42435;53.292;6.000;2023-12-07T10:20:17;8.00;73.80
56538;DHT22;42435;53.292;6.000;2023-12-07T10:22:42;8.00;73.60
56538;DHT22;42435;53.292;6.000;2023-12-07T10:25:10;8.10;73.30
56538;DHT22;42435;53.292;6.000;2023-12-07T10:27:39;8.10;73.10
56538;DHT22;42435;53.292;6.000;2023-12-07T10:30:08;8.10;72.90
56538;DHT22;42435;53.292;6.000;2023-12-07T10:32:38;8.10;72.80
56538;DHT22;42435;53.292;6.000;2023-12-07T10:35:06;8.10;72.40
56538;DHT22;42435;53.292;6.000;2023-12-07T10:37:33;8.10;72.30
56538;DHT22;42435;53.292;6.000;2023-12-07T10:39:59;8.00;72.30
56538;DHT22;42435;53.292;6.000;2023-12-07T10:42:24;8.10;72.10
56538;DHT22;42435;53.292;6.000;2023-12-07T10:44:58;8.10;72.00
56538;DHT22;42435;53.292;6.000;2023-12-07T10:47:27;8.10;71.60
56538;DHT22;42435;53.292;6.000;2023-12-07T10:49:57;8.00;71.80
56538;DHT22;42435;53.292;6.000;2023-12-07T10:52:27;8.10;71.70
56538;DHT22;42435;53.292;6.000;2023-12-07T10:57:33;8.00;71.30
56538;DHT22;42435;53.292;6.000;2023-12-07T11:00:01;8.10;71.40
56538;DHT22;42435;53.292;6.000;2023-12-07T11:02:28;8.00;71.40
56538;DHT22;42435;53.292;6.000;2023-12-07T11:04:57;8.10;71.40
56538;DHT22;42435;53.292;6.000;2023-12-07T11:07:25;8.10;71.30
56538;DHT22;42435;53.292;6.000;2023-12-07T11:10:00;8.10;71.40
56538;DHT22;42435;53.292;6.000;2023-12-07T11:12:37;8.10;71.30
56538;DHT22;42435;53.292;6.000;2023-12-07T11:15:05;8.10;71.20
56538;DHT22;42435;53.292;6.000;2023-12-07T11:17:49;8.10;71.30
56538;DHT22;42435;53.292;6.000;2023-12-07T11:20:19;8.10;71.00
56538;DHT22;42435;53.292;6.000;2023-12-07T11:22:46;8.10;71.10
56538;DHT22;42435;53.292;6.000;2023-12-07T11:25:14;8.10;71.30
56538;DHT22;42435;53.292;6.000;2023-12-07T11:27:40;8.00;71.20
56538;DHT22;42435;53.292;6.000;2023-12-07T11:30:13;8.00;71.20
56538;DHT22;42435;53.292;6.000;2023-12-07T11:32:41;8.00;71.30
56538;DHT22;42435;53.292;6.000;2023-12-07T11:35:11;8.00;71.40
56538;DHT22;42435;53.292;6.000;2023-12-07T11:38:00;8.10;71.20
56538;DHT22;42435;53.292;6.000;2023-12-07T11:40:26;8.10;71.30
56538;DHT22;42435;53.292;6.000;2023-12-07T11:42:54;8.10;71.50
56538;DHT22;42435;53.292;6.000;2023-12-07T11:45:42;8.20;71.40
56538;DHT22;42435;53.292;6.000;2023-12-07T11:48:14;8.20;71.20
56538;DHT22;42435;53.292;6.000;2023-12-07T11:51:04;8.20;71.30
56538;DHT22;42435;53.292;6.000;2023-12-07T11:53:31;8.20;71.00
56538;DHT22;42435;53.292;6.000;2023-12-07T11:56:05;8.20;71.30
56538;DHT22;42435;53.292;6.000;2023-12-07T11:58:32;8.20;71.10
56538;DHT22;42435;53.292;6.000;2023-12-07T12:00:59;8.20;71.30
56538;DHT22;42435;53.292;6.000;2023-12-07T12:03:28;8.30;71.30
56538;DHT22;42435;53.292;6.000;2023-12-07T12:05:55;8.30;71.30
56538;DHT22;42435;53.292;6.000;2023-12-07T12:08:21;8.40;71.30
56538;DHT22;42435;53.292;6.000;2023-12-07T12:10:50;8.40;71.10
56538;DHT22;42435;53.292;6.000;2023-12-07T12:13:17;8.40;71.00
56538;DHT22;42435;53.292;6.000;2023-12-07T12:15:45;8.40;71.10
56538;DHT22;42435;53.292;6.000;2023-12-07T12:18:12;8.40;71.00
56538;DHT22;42435;53.292;6.000;2023-12-07T12:20:39;8.40;70.90
56538;DHT22;42435;53.292;6.000;2023-12-07T12:23:05;8.40;70.90
56538;DHT22;42435;53.292;6.000;2023-12-07T12:25:32;8.40;70.90
56538;DHT22;42435;53.292;6.000;2023-12-07T12:28:02;8.40;70.90
56538;DHT22;42435;53.292;6.000;2023-12-07T12:30:29;8.40;70.70
56538;DHT22;42435;53.292;6.000;2023-12-07T12:32:56;8.50;70.70
56538;DHT22;42435;53.292;6.000;2023-12-07T12:35:21;8.50;70.80
56538;DHT22;42435;53.292;6.000;2023-12-07T12:37:48;8.50;70.90
56538;DHT22;42435;53.292;6.000;2023-12-07T12:40:18;8.60;70.80
56538;DHT22;42435;53.292;6.000;2023-12-07T12:42:52;8.60;70.70
56538;DHT22;42435;53.292;6.000;2023-12-07T12:45:18;8.60;70.60
56538;DHT22;42435;53.292;6.000;2023-12-07T12:47:46;8.60;70.60
56538;DHT22;42435;53.292;6.000;2023-12-07T12:50:33;8.60;70.40
56538;DHT22;42435;53.292;6.000;2023-12-07T12:53:00;8.60;70.10
56538;DHT22;42435;53.292;6.000;2023-12-07T12:55:28;8.60;70.30
56538;DHT22;42435;53.292;6.000;2023-12-07T12:57:55;8.60;70.30
56538;DHT22;42435;53.292;6.000;2023-12-07T13:00:23;8.50;70.20
56538;DHT22;42435;53.292;6.000;2023-12-07T13:02:49;8.40;70.30
56538;DHT22;42435;53.292;6.000;2023-12-07T13:05:15;8.30;70.40
56538;DHT22;42435;53.292;6.000;2023-12-07T13:07:41;8.30;70.30
56538;DHT22;42435;53.292;6.000;2023-12-07T13:10:07;8.20;70.40
56538;DHT22;42435;53.292;6.000;2023-12-07T13:12:33;8.10;70.60
56538;DHT22;42435;53.292;6.000;2023-12-07T13:15:00;8.00;70.50
56538;DHT22;42435;53.292;6.000;2023-12-07T13:17:26;7.90;70.40
56538;DHT22;42435;53.292;6.000;2023-12-07T13:19:53;7.70;70.00
56538;DHT22;42435;53.292;6.000;2023-12-07T13:22:19;7.40;69.80
56538;DHT22;42435;53.292;6.000;2023-12-07T13:24:48;7.10;69.90
56538;DHT22;42435;53.292;6.000;2023-12-07T13:27:14;6.80;70.10
56538;DHT22;42435;53.292;6.000;2023-12-07T13:29:42;6.50;70.30
56538;DHT22;42435;53.292;6.000;2023-12-07T13:32:07;6.30;70.60
56538;DHT22;42435;53.292;6.000;2023-12-07T13:34:33;6.00;71.00
56538;DHT22;42435;53.292;6.000;2023-12-07T13:36:59;5.80;71.40
56538;DHT22;42435;53.292;6.000;2023-12-07T13:39:25;5.50;71.60
56538;DHT22;42435;53.292;6.000;2023-12-07T13:41:52;5.30;72.00
56538;DHT22;42435;53.292;6.000;2023-12-07T13:44:18;5.00;72.40
56538;DHT22;42435;53.292;6.000;2023-12-07T13:46:44;4.80;72.80
56538;DHT22;42435;53.292;6.000;2023-12-07T13:49:10;4.60;73.10
56538;DHT22;42435;53.292;6.000;2023-12-07T13:51:37;4.50;73.60
56538;DHT22;42435;53.292;6.000;2023-12-07T13:54:03;4.30;74.00
56538;DHT22;42435;53.292;6.000;2023-12-07T13:56:29;4.20;74.40
56538;DHT22;42435;53.292;6.000;2023-12-07T13:58:55;4.00;74.80
56538;DHT22;42435;53.292;6.000;2023-12-07T14:01:20;4.00;75.10
56538;DHT22;42435;53.292;6.000;2023-12-07T14:03:47;3.90;75.40
56538;DHT22;42435;53.292;6.000;2023-12-07T14:06:22;3.80;75.70
56538;DHT22;42435;53.292;6.000;2023-12-07T14:08:49;3.70;76.30
56538;DHT22;42435;53.292;6.000;2023-12-07T14:11:16;3.70;76.40
56538;DHT22;42435;53.292;6.000;2023-12-07T14:13:41;3.70;76.70
56538;DHT22;42435;53.292;6.000;2023-12-07T14:16:07;3.50;76.80
56538;DHT22;42435;53.292;6.000;2023-12-07T14:18:34;3.50;76.90
56538;DHT22;42435;53.292;6.000;2023-12-07T14:21:01;3.40;77.10
56538;DHT22;42435;53.292;6.000;2023-12-07T14:23:28;3.40;77.40
56538;DHT22;42435;53.292;6.000;2023-12-07T14:25:53;3.20;77.50
56538;DHT22;42435;53.292;6.000;2023-12-07T14:28:24;3.20;77.60
56538;DHT22;42435;53.292;6.000;2023-12-07T14:30:49;3.10;77.80
56538;DHT22;42435;53.292;6.000;2023-12-07T14:33:15;3.10;78.00
56538;DHT22;42435;53.292;6.000;2023-12-07T14:35:42;3.00;78.20
56538;DHT22;42435;53.292;6.000;2023-12-07T14:38:07;3.00;78.30
56538;DHT22;42435;53.292;6.000;2023-12-07T14:40:33;2.90;78.50
56538;DHT22;42435;53.292;6.000;2023-12-07T14:43:00;2.90;78.60
56538;DHT22;42435;53.292;6.000;2023-12-07T14:45:26;2.90;78.70
56538;DHT22;42435;53.292;6.000;2023-12-07T14:47:52;2.90;78.90
56538;DHT22;42435;53.292;6.000;2023-12-07T14:50:18;2.80;79.10
56538;DHT22;42435;53.292;6.000;2023-12-07T14:52:43;2.80;79.10
56538;DHT22;42435;53.292;6.000;2023-12-07T14:55:09;2.80;79.30
56538;DHT22;42435;53.292;6.000;2023-12-07T14:57:35;2.80;79.40
56538;DHT22;42435;53.292;6.000;2023-12-07T15:00:00;2.80;79.50
56538;DHT22;42435;53.292;6.000;2023-12-07T15:02:29;2.70;79.50
56538;DHT22;42435;53.292;6.000;2023-12-07T15:04:55;2.70;79.60
56538;DHT22;42435;53.292;6.000;2023-12-07T15:07:21;2.70;79.70
56538;DHT22;42435;53.292;6.000;2023-12-07T15:09:46;2.70;79.80
56538;DHT22;42435;53.292;6.000;2023-12-07T15:12:15;2.70;80.00
56538;DHT22;42435;53.292;6.000;2023-12-07T15:14:42;2.70;80.10
56538;DHT22;42435;53.292;6.000;2023-12-07T15:17:11;2.70;80.10
56538;DHT22;42435;53.292;6.000;2023-12-07T15:19:37;2.60;80.10
56538;DHT22;42435;53.292;6.000;2023-12-07T15:22:03;2.60;80.20
56538;DHT22;42435;53.292;6.000;2023-12-07T15:24:29;2.60;80.40
56538;DHT22;42435;53.292;6.000;2023-12-07T15:26:55;2.60;80.50
56538;DHT22;42435;53.292;6.000;2023-12-07T15:29:24;2.60;80.40
56538;DHT22;42435;53.292;6.000;2023-12-07T15:31:49;2.50;80.50
56538;DHT22;42435;53.292;6.000;2023-12-07T15:34:15;2.60;80.60
56538;DHT22;42435;53.292;6.000;2023-12-07T15:36:40;2.50;80.70
56538;DHT22;42435;53.292;6.000;2023-12-07T15:39:06;2.50;80.90
56538;DHT22;42435;53.292;6.000;2023-12-07T15:41:32;2.50;80.90
56538;DHT22;42435;53.292;6.000;2023-12-07T15:43:58;2.50;80.90
56538;DHT22;42435;53.292;6.000;2023-12-07T15:46:23;2.50;80.90
56538;DHT22;42435;53.292;6.000;2023-12-07T15:48:49;2.50;81.00